createdAt,value
2023-02-11T00:00:41.660Z,77.76
2023-02-11T00:03:09.442Z,78.14
2023-02-11T00:05:36.800Z,78.00
2023-02-11T00:08:04.279Z,77.92
2023-02-11T00:10:31.597Z,78.67
2023-02-11T00:12:58.955Z,78.23
2023-02-11T00:15:26.310Z,78.00
2023-02-11T00:17:53.601Z,78.38
2023-02-11T00:20:20.974Z,79.23
2023-02-11T00:22:48.194Z,79.53
2023-02-11T00:25:15.525Z,79.01
2023-02-11T00:27:42.829Z,79.16
2023-02-11T00:30:11.046Z,80.18
2023-02-11T00:32:38.890Z,80.91
2023-02-11T00:35:06.457Z,81.09
2023-02-11T00:37:36.483Z,80.51
2023-02-11T00:40:06.814Z,80.95
2023-02-11T00:42:35.613Z,79.83
2023-02-11T00:45:03.741Z,79.58
2023-02-11T00:47:31.025Z,78.93
2023-02-11T00:49:59.200Z,80.52
2023-02-11T00:52:28.259Z,81.48
2023-02-11T00:54:55.649Z,80.83
2023-02-11T00:57:22.897Z,79.85
2023-02-11T00:59:50.634Z,79.62
2023-02-11T01:02:19.188Z,80.38
2023-02-11T01:04:46.586Z,79.48
2023-02-11T01:07:13.945Z,79.08
2023-02-11T01:09:41.232Z,79.61
2023-02-11T01:12:08.516Z,80.07
2023-02-11T01:14:35.831Z,79.55
2023-02-11T01:17:05.842Z,79.43
2023-02-11T01:19:33.455Z,79.56
2023-02-11T01:22:00.783Z,79.64
2023-02-11T01:24:28.302Z,79.92
2023-02-11T01:26:55.676Z,79.41
2023-02-11T01:29:24.698Z,79.26
2023-02-11T01:31:55.224Z,79.11
2023-02-11T01:34:22.654Z,79.76
2023-02-11T01:36:50.660Z,79.61
2023-02-11T01:39:17.988Z,79.29
2023-02-11T01:41:46.964Z,79.42
2023-02-11T01:44:33.982Z,79.40
2023-02-11T01:47:01.680Z,78.73
2023-02-11T01:49:31.867Z,78.79
2023-02-11T01:52:02.836Z,79.20
2023-02-11T01:54:51.828Z,79.74
2023-02-11T01:57:23.054Z,79.68
2023-02-11T02:00:21.532Z,80.78
2023-02-11T02:03:11.657Z,79.61
2023-02-11T02:05:52.180Z,79.17
2023-02-11T02:08:29.576Z,79.52
2023-02-11T02:10:58.588Z,78.61
2023-02-11T02:13:25.959Z,78.68
2023-02-11T02:15:55.315Z,78.33
2023-02-11T02:18:35.602Z,77.99
2023-02-11T02:21:24.085Z,78.54
2023-02-11T02:24:15.324Z,78.62
2023-02-11T02:27:20.792Z,79.42
2023-02-11T02:29:54.168Z,79.34
2023-02-11T02:32:21.390Z,79.11
2023-02-11T02:35:01.522Z,79.12
2023-02-11T02:37:38.522Z,80.41
2023-02-11T02:40:11.877Z,81.16
2023-02-11T02:42:40.469Z,81.07
2023-02-11T02:45:09.592Z,81.08
2023-02-11T02:47:36.973Z,80.51
2023-02-11T02:50:06.097Z,80.70
2023-02-11T02:52:56.093Z,80.49
2023-02-11T02:56:02.121Z,79.54
2023-02-11T02:58:45.408Z,79.86
2023-02-11T03:01:17.175Z,80.21
2023-02-11T03:04:03.374Z,80.71
2023-02-11T03:06:44.453Z,80.78
2023-02-11T03:09:38.393Z,80.44
2023-02-11T03:12:06.366Z,80.64
2023-02-11T03:14:33.892Z,80.94
2023-02-11T03:17:02.874Z,80.49
2023-02-11T03:19:56.527Z,80.96
2023-02-11T03:22:30.956Z,80.75
2023-02-11T03:24:58.322Z,80.62
2023-02-11T03:27:33.407Z,80.64
2023-02-11T03:30:14.668Z,80.71
2023-02-11T03:32:48.436Z,80.13
2023-02-11T03:35:48.758Z,80.79
2023-02-11T03:38:26.347Z,80.86
2023-02-11T03:40:54.553Z,80.18
2023-02-11T03:43:25.257Z,80.21
2023-02-11T03:45:53.738Z,80.04
2023-02-11T03:48:31.834Z,80.05
2023-02-11T03:51:01.753Z,80.20
2023-02-11T03:53:29.168Z,80.85
2023-02-11T03:55:59.560Z,81.07
2023-02-11T03:58:26.876Z,80.66
2023-02-11T04:00:54.210Z,79.93
2023-02-11T04:03:21.568Z,80.16
2023-02-11T04:05:49.114Z,80.60
2023-02-11T04:08:16.553Z,80.64
2023-02-11T04:10:43.898Z,80.45
2023-02-11T04:13:11.198Z,80.29
2023-02-11T04:15:38.462Z,80.65
2023-02-11T04:18:05.743Z,79.75
2023-02-11T04:20:33.051Z,79.95
2023-02-11T04:23:00.316Z,80.28
2023-02-11T04:25:27.861Z,80.34
2023-02-11T04:27:55.289Z,80.52
2023-02-11T04:30:22.903Z,80.85
2023-02-11T04:32:50.167Z,80.87
2023-02-11T04:35:17.566Z,81.37
2023-02-11T04:37:44.866Z,81.07
2023-02-11T04:40:12.623Z,81.25
2023-02-11T04:42:40.312Z,82.16
2023-02-11T04:45:08.027Z,82.38
2023-02-11T04:47:36.196Z,81.61
2023-02-11T04:50:03.907Z,81.22
2023-02-11T04:52:31.258Z,81.61
2023-02-11T04:54:58.601Z,81.32
2023-02-11T04:57:25.817Z,80.70
2023-02-11T04:59:53.079Z,81.67
2023-02-11T05:02:20.477Z,81.09
2023-02-11T05:04:47.921Z,81.77
2023-02-11T05:07:15.197Z,81.94
2023-02-11T05:09:42.472Z,82.18
2023-02-11T05:12:10.057Z,81.97
2023-02-11T05:14:37.406Z,81.86
2023-02-11T05:17:04.636Z,81.03
2023-02-11T05:19:32.119Z,82.10
2023-02-11T05:22:02.973Z,82.53
2023-02-11T05:24:32.395Z,82.80
2023-02-11T05:27:00.173Z,82.42
2023-02-11T05:29:27.846Z,82.25
2023-02-11T05:31:55.200Z,81.47
2023-02-11T05:34:22.545Z,81.17
2023-02-11T05:36:50.279Z,80.80
2023-02-11T05:39:17.670Z,80.94
2023-02-11T05:41:44.937Z,80.83
2023-02-11T05:44:12.208Z,81.12
2023-02-11T05:46:39.677Z,81.83
2023-02-11T05:49:07.035Z,82.07
2023-02-11T05:51:34.217Z,81.79
2023-02-11T05:54:01.836Z,81.55
2023-02-11T05:56:29.182Z,81.54
2023-02-11T05:58:59.062Z,81.69
2023-02-11T06:01:27.149Z,81.44
2023-02-11T06:03:54.967Z,81.62
2023-02-11T06:06:22.246Z,81.30
2023-02-11T06:08:49.568Z,80.78
2023-02-11T06:11:17.294Z,80.87
2023-02-11T06:13:44.513Z,80.20
2023-02-11T06:16:21.847Z,80.94
2023-02-11T06:18:55.812Z,81.36
2023-02-11T06:21:26.471Z,81.12
2023-02-11T06:23:58.087Z,81.69
2023-02-11T06:26:25.576Z,82.56
2023-02-11T06:28:52.931Z,81.85
2023-02-11T06:31:20.229Z,81.60
2023-02-11T06:33:47.728Z,81.37
2023-02-11T06:36:19.430Z,81.02
2023-02-11T06:38:47.158Z,81.39
2023-02-11T06:41:16.495Z,81.84
2023-02-11T06:43:50.425Z,81.16
2023-02-11T06:46:17.758Z,80.49
2023-02-11T06:48:45.225Z,80.63
2023-02-11T06:51:13.822Z,80.58
2023-02-11T06:53:43.989Z,81.41
2023-02-11T06:56:16.083Z,82.43
2023-02-11T06:58:43.417Z,82.22
2023-02-11T07:01:14.019Z,82.55
2023-02-11T07:03:46.849Z,82.30
2023-02-11T07:06:20.380Z,82.27
2023-02-11T07:08:48.623Z,82.68
2023-02-11T07:11:24.467Z,83.36
2023-02-11T07:13:53.818Z,81.87
2023-02-11T07:16:21.211Z,81.88
2023-02-11T07:18:48.976Z,81.20
2023-02-11T07:21:19.435Z,81.06
2023-02-11T07:23:48.340Z,80.54
2023-02-11T07:26:18.202Z,81.23
2023-02-11T07:28:45.941Z,81.72
2023-02-11T07:31:16.180Z,82.44
2023-02-11T07:33:45.798Z,81.32
2023-02-11T07:36:14.788Z,81.58
2023-02-11T07:38:42.497Z,81.68
2023-02-11T07:41:12.427Z,80.77
2023-02-11T07:43:40.279Z,80.03
2023-02-11T07:46:09.986Z,80.27
2023-02-11T07:48:37.369Z,80.46
2023-02-11T07:51:16.858Z,80.09
2023-02-11T07:53:44.656Z,80.47
2023-02-11T07:56:14.167Z,80.28
2023-02-11T07:58:43.064Z,80.06
2023-02-11T08:01:12.631Z,80.60
2023-02-11T08:03:41.987Z,80.89
2023-02-11T08:06:17.787Z,80.81
2023-02-11T08:08:45.420Z,80.67
2023-02-11T08:11:26.786Z,81.02
2023-02-11T08:13:57.073Z,81.44
2023-02-11T08:16:27.341Z,80.93
2023-02-11T08:18:57.730Z,80.50
2023-02-11T08:21:25.723Z,80.14
2023-02-11T08:23:53.312Z,80.37
2023-02-11T08:26:25.325Z,80.60
2023-02-11T08:28:53.612Z,80.15
2023-02-11T08:31:26.457Z,80.47
2023-02-11T08:33:54.936Z,80.57
2023-02-11T08:36:24.974Z,80.59
2023-02-11T08:38:57.091Z,80.40
2023-02-11T08:41:28.054Z,80.60
2023-02-11T08:43:56.080Z,79.78
2023-02-11T08:46:23.375Z,79.64
2023-02-11T08:48:50.905Z,79.33
2023-02-11T08:51:21.061Z,80.27
2023-02-11T08:53:48.802Z,80.35
2023-02-11T08:56:16.985Z,80.91
2023-02-11T08:58:44.636Z,80.53
2023-02-11T09:01:13.590Z,78.99
2023-02-11T09:03:41.120Z,80.27
2023-02-11T09:06:10.012Z,80.35
2023-02-11T09:08:38.451Z,81.00
2023-02-11T09:11:06.273Z,81.15
2023-02-11T09:13:33.815Z,79.75
2023-02-11T09:16:02.669Z,80.10
2023-02-11T09:18:30.402Z,79.07
2023-02-11T09:21:11.630Z,79.72
2023-02-11T09:23:41.768Z,79.32
2023-02-11T09:26:18.242Z,78.87
2023-02-11T09:28:46.223Z,78.38
2023-02-11T09:31:16.775Z,77.48
2023-02-11T09:33:48.958Z,75.40
2023-02-11T09:36:19.299Z,74.51
2023-02-11T09:38:50.946Z,73.79
2023-02-11T09:41:25.577Z,73.74
2023-02-11T09:44:02.964Z,73.69
2023-02-11T09:46:37.806Z,73.33
2023-02-11T09:49:05.592Z,74.30
2023-02-11T09:51:49.444Z,74.73
2023-02-11T09:54:29.569Z,73.45
2023-02-11T09:56:57.207Z,73.27
2023-02-11T09:59:24.515Z,72.84
2023-02-11T10:01:59.485Z,72.13
2023-02-11T10:04:49.501Z,71.50
2023-02-11T10:07:19.469Z,71.36
2023-02-11T10:09:59.357Z,71.84
2023-02-11T10:12:26.868Z,73.57
2023-02-11T10:14:53.905Z,73.93
2023-02-11T10:17:37.225Z,73.66
2023-02-11T10:20:23.881Z,72.26
2023-02-11T10:22:57.657Z,71.94
2023-02-11T10:25:35.549Z,71.59
2023-02-11T10:28:13.795Z,71.87
2023-02-11T10:30:46.541Z,71.12
2023-02-11T10:33:24.883Z,71.04
2023-02-11T10:35:53.006Z,72.09
2023-02-11T10:38:20.340Z,71.88
2023-02-11T10:40:48.067Z,72.13
2023-02-11T10:43:17.784Z,71.70
2023-02-11T10:45:49.218Z,72.58
2023-02-11T10:48:41.860Z,74.04
2023-02-11T10:51:15.672Z,75.00
2023-02-11T10:53:43.344Z,75.15
2023-02-11T10:56:13.029Z,75.54
2023-02-11T10:58:46.489Z,75.42
2023-02-11T11:01:23.956Z,76.59
2023-02-11T11:03:52.844Z,76.03
2023-02-11T11:06:31.598Z,75.92
2023-02-11T11:08:59.384Z,77.46
2023-02-11T11:11:27.245Z,77.46
2023-02-11T11:13:59.186Z,77.67
2023-02-11T11:16:30.283Z,78.13
2023-02-11T11:19:06.816Z,78.00
2023-02-11T11:21:41.303Z,77.96
2023-02-11T11:24:20.325Z,77.51
2023-02-11T11:26:50.892Z,75.26
2023-02-11T11:29:20.338Z,74.22
2023-02-11T11:31:50.395Z,74.25
2023-02-11T11:34:45.627Z,73.19
2023-02-11T11:37:15.154Z,73.38
2023-02-11T11:39:42.492Z,72.85
2023-02-11T11:42:43.603Z,72.47
2023-02-11T11:45:20.083Z,73.03
2023-02-11T11:48:06.146Z,73.84
2023-02-11T11:50:45.399Z,73.04
2023-02-11T11:53:31.002Z,72.24
2023-02-11T11:56:03.318Z,71.69
2023-02-11T11:58:31.833Z,71.23
2023-02-11T12:01:29.653Z,71.34
2023-02-11T12:04:25.263Z,71.05
2023-02-11T12:07:04.368Z,72.37
2023-02-11T12:09:55.879Z,72.36
2023-02-11T12:12:38.661Z,71.46
2023-02-11T12:15:08.895Z,72.30
2023-02-11T12:17:59.492Z,71.95
2023-02-11T12:20:54.882Z,71.53
2023-02-11T12:23:50.684Z,71.11
2023-02-11T12:26:24.111Z,71.74
2023-02-11T12:29:02.529Z,73.72
2023-02-11T12:31:44.267Z,74.37
2023-02-11T12:34:25.008Z,73.23
2023-02-11T12:37:21.247Z,73.96
2023-02-11T12:40:15.905Z,74.77
2023-02-11T12:43:10.629Z,73.73
2023-02-11T12:46:16.091Z,71.73
2023-02-11T12:49:09.527Z,71.14
2023-02-11T12:52:01.983Z,70.88
2023-02-11T12:54:46.575Z,69.84
2023-02-11T12:57:18.654Z,70.01
2023-02-11T13:00:06.478Z,70.37
2023-02-11T13:02:54.373Z,69.45
2023-02-11T13:05:38.391Z,70.36
2023-02-11T13:08:22.747Z,70.81
2023-02-11T13:11:03.140Z,70.67
2023-02-11T13:13:46.453Z,69.74
2023-02-11T13:16:18.794Z,69.08
2023-02-11T13:18:52.729Z,70.04
2023-02-11T13:21:28.987Z,69.82
2023-02-11T13:24:01.155Z,70.62
2023-02-11T13:26:46.631Z,70.86
2023-02-11T13:29:27.717Z,69.94
2023-02-11T13:32:15.846Z,70.32
2023-02-11T13:34:43.151Z,69.83
2023-02-11T13:37:21.292Z,68.95
2023-02-11T13:40:11.580Z,68.73
2023-02-11T13:42:56.746Z,70.13
2023-02-11T13:45:41.567Z,70.30
2023-02-11T13:48:38.140Z,69.60
2023-02-11T13:51:08.780Z,69.92
2023-02-11T13:54:02.845Z,68.79
2023-02-11T13:56:33.616Z,69.03
2023-02-11T13:59:03.300Z,68.06
2023-02-11T14:02:23.123Z,68.26
2023-02-11T14:05:31.106Z,68.58
2023-02-11T14:08:26.169Z,68.41
2023-02-11T14:10:57.605Z,68.35
2023-02-11T14:13:29.334Z,68.23
2023-02-11T14:16:31.529Z,68.92
2023-02-11T14:19:04.195Z,68.97
2023-02-11T14:21:37.354Z,68.69
2023-02-11T14:24:04.946Z,70.00
2023-02-11T14:26:54.792Z,69.75
2023-02-11T14:30:03.306Z,71.59
2023-02-11T14:33:12.289Z,70.57
2023-02-11T14:35:47.361Z,70.41
2023-02-11T14:38:36.672Z,70.56
2023-02-11T14:41:25.050Z,70.68
2023-02-11T14:43:58.884Z,69.94
2023-02-11T14:46:30.811Z,69.33
2023-02-11T14:49:01.486Z,69.61
2023-02-11T14:51:32.059Z,69.12
2023-02-11T14:54:22.842Z,68.97
2023-02-11T14:57:29.778Z,68.46
2023-02-11T15:00:03.119Z,68.80
2023-02-11T15:02:36.380Z,69.06
2023-02-11T15:05:39.276Z,69.22
2023-02-11T15:08:08.481Z,68.78
2023-02-11T15:10:43.895Z,69.28
2023-02-11T15:13:20.562Z,68.67
2023-02-11T15:15:48.636Z,68.88
2023-02-11T15:18:22.892Z,69.29
2023-02-11T15:20:52.148Z,69.20
2023-02-11T15:23:23.607Z,70.48
2023-02-11T15:25:56.317Z,70.63
2023-02-11T15:28:25.075Z,70.58
2023-02-11T15:31:12.912Z,70.58
2023-02-11T15:33:40.770Z,70.85
2023-02-11T15:36:11.662Z,69.77
2023-02-11T15:38:40.108Z,70.06
2023-02-11T15:41:07.949Z,69.37
2023-02-11T15:43:43.714Z,69.35
2023-02-11T15:46:14.719Z,72.34
2023-02-11T15:48:45.828Z,72.96
2023-02-11T15:51:35.507Z,72.84
2023-02-11T15:54:19.239Z,71.67
2023-02-11T15:57:03.221Z,72.37
2023-02-11T15:59:38.429Z,72.58
2023-02-11T16:02:08.817Z,72.44
2023-02-11T16:04:36.408Z,72.01
2023-02-11T16:07:05.209Z,71.63
2023-02-11T16:09:35.644Z,72.05
2023-02-11T16:12:18.029Z,72.66
2023-02-11T16:14:45.381Z,71.73
2023-02-11T16:17:23.332Z,71.36
2023-02-11T16:19:52.043Z,71.59
2023-02-11T16:22:24.675Z,71.44
2023-02-11T16:24:53.639Z,71.70
2023-02-11T16:27:30.346Z,71.57
2023-02-11T16:29:58.423Z,71.27
2023-02-11T16:32:27.955Z,71.73
2023-02-11T16:35:01.000Z,72.17
2023-02-11T16:37:28.450Z,72.39
2023-02-11T16:39:56.864Z,72.90
2023-02-11T16:42:24.748Z,72.69
2023-02-11T16:44:52.059Z,71.92
2023-02-11T16:47:25.151Z,71.77
2023-02-11T16:49:55.509Z,72.75
2023-02-11T16:52:24.686Z,72.65
2023-02-11T16:54:52.014Z,72.70
2023-02-11T16:57:22.257Z,73.12
2023-02-11T16:59:49.534Z,72.82
2023-02-11T17:02:26.249Z,74.46
2023-02-11T17:04:54.754Z,75.15
2023-02-11T17:07:22.741Z,74.74
2023-02-11T17:09:56.324Z,74.73
2023-02-11T17:12:27.219Z,74.75
2023-02-11T17:14:54.892Z,74.63
2023-02-11T17:17:23.922Z,73.85
2023-02-11T17:19:51.528Z,73.92
2023-02-11T17:22:19.013Z,73.37
2023-02-11T17:24:46.492Z,73.26
2023-02-11T17:27:17.244Z,73.32
2023-02-11T17:29:46.540Z,73.74
2023-02-11T17:32:14.433Z,73.23
2023-02-11T17:34:41.746Z,72.36
2023-02-11T17:37:09.595Z,72.33
2023-02-11T17:39:39.421Z,73.26
2023-02-11T17:42:08.920Z,72.85
2023-02-11T17:44:37.261Z,72.33
2023-02-11T17:47:30.269Z,74.04
2023-02-11T17:49:57.804Z,75.70
2023-02-11T17:52:27.840Z,76.24
2023-02-11T17:54:55.589Z,75.62
2023-02-11T17:57:23.004Z,75.63
2023-02-11T17:59:51.659Z,75.79
2023-02-11T18:02:19.588Z,74.75
2023-02-11T18:04:47.044Z,75.03
2023-02-11T18:07:14.688Z,75.62
2023-02-11T18:09:42.383Z,74.88
2023-02-11T18:12:10.802Z,74.40
2023-02-11T18:14:40.583Z,74.17
2023-02-11T18:17:07.962Z,74.79
2023-02-11T18:19:36.651Z,74.73
2023-02-11T18:22:04.457Z,73.74
2023-02-11T18:24:31.898Z,74.06
2023-02-11T18:26:59.270Z,74.44
2023-02-11T18:29:27.179Z,74.24
2023-02-11T18:31:56.761Z,74.18
2023-02-11T18:34:24.537Z,73.77
2023-02-11T18:36:52.339Z,73.81
2023-02-11T18:39:20.325Z,73.59
2023-02-11T18:41:50.082Z,74.02
2023-02-11T18:44:22.209Z,74.03
2023-02-11T18:46:53.673Z,74.05
2023-02-11T18:49:21.338Z,73.35
2023-02-11T18:51:48.695Z,73.17
2023-02-11T18:54:16.159Z,72.82
2023-02-11T18:56:43.492Z,71.66
2023-02-11T18:59:11.000Z,72.14
2023-02-11T19:01:40.777Z,72.71
2023-02-11T19:04:08.368Z,73.39
2023-02-11T19:06:37.373Z,73.73
2023-02-11T19:09:10.422Z,75.26
2023-02-11T19:11:54.079Z,76.26
2023-02-11T19:14:21.400Z,76.04
2023-02-11T19:16:50.672Z,75.55
2023-02-11T19:19:18.775Z,76.67
2023-02-11T19:21:46.596Z,76.45
2023-02-11T19:24:19.879Z,76.74
2023-02-11T19:26:48.147Z,76.94
2023-02-11T19:29:15.898Z,77.64
2023-02-11T19:31:44.229Z,78.39
2023-02-11T19:34:14.396Z,80.12
2023-02-11T19:36:42.188Z,81.08
2023-02-11T19:39:10.366Z,80.94
2023-02-11T19:41:38.235Z,80.09
2023-02-11T19:44:06.570Z,81.27
2023-02-11T19:46:37.326Z,80.84
2023-02-11T19:49:05.542Z,79.81
2023-02-11T19:51:33.828Z,80.20
2023-02-11T19:54:01.264Z,79.53
2023-02-11T19:56:33.368Z,79.91
2023-02-11T19:59:04.434Z,79.55
2023-02-11T20:01:32.007Z,79.09
2023-02-11T20:03:59.304Z,78.15
2023-02-11T20:06:29.519Z,77.53
2023-02-11T20:09:06.864Z,77.39
2023-02-11T20:11:35.557Z,78.54
2023-02-11T20:14:03.997Z,78.23
2023-02-11T20:16:46.890Z,78.81
2023-02-11T20:19:18.254Z,78.71
2023-02-11T20:21:47.782Z,78.39
2023-02-11T20:24:19.462Z,78.38
2023-02-11T20:26:51.870Z,78.93
2023-02-11T20:29:23.628Z,78.66
2023-02-11T20:31:53.722Z,78.83
2023-02-11T20:34:21.955Z,78.32
2023-02-11T20:36:52.247Z,79.78
2023-02-11T20:39:22.648Z,79.81
2023-02-11T20:41:51.057Z,79.35
2023-02-11T20:44:18.864Z,79.16
2023-02-11T20:46:46.636Z,79.17
2023-02-11T20:49:16.699Z,78.36
2023-02-11T20:51:44.344Z,79.16
2023-02-11T20:54:14.036Z,78.76
2023-02-11T20:56:41.850Z,78.01
2023-02-11T20:59:11.765Z,78.12
2023-02-11T21:01:42.929Z,78.90
2023-02-11T21:04:12.306Z,79.49
2023-02-11T21:06:42.386Z,79.73
2023-02-11T21:09:10.841Z,79.91
2023-02-11T21:11:38.036Z,79.37
2023-02-11T21:14:06.044Z,80.15
2023-02-11T21:16:33.559Z,80.47
2023-02-11T21:19:01.353Z,80.48
2023-02-11T21:21:29.203Z,80.80
2023-02-11T21:23:56.872Z,80.49
2023-02-11T21:26:24.955Z,79.54
2023-02-11T21:28:54.820Z,79.61
2023-02-11T21:31:33.088Z,79.25
2023-02-11T21:34:00.570Z,80.03
2023-02-11T21:36:29.069Z,80.84
2023-02-11T21:38:56.551Z,81.47
2023-02-11T21:41:24.978Z,80.46
2023-02-11T21:43:52.411Z,79.81
2023-02-11T21:46:21.156Z,79.22
2023-02-11T21:48:49.107Z,79.19
2023-02-11T21:51:20.154Z,79.48
2023-02-11T21:53:47.690Z,79.68
2023-02-11T21:56:17.979Z,79.39
2023-02-11T21:58:46.187Z,80.32
2023-02-11T22:01:17.161Z,79.92
2023-02-11T22:03:45.217Z,80.95
2023-02-11T22:06:16.269Z,81.23
2023-02-11T22:08:43.764Z,81.38
2023-02-11T22:11:12.452Z,81.52
2023-02-11T22:13:40.408Z,81.75
2023-02-11T22:16:13.399Z,81.37
2023-02-11T22:18:41.655Z,81.68
2023-02-11T22:21:20.070Z,81.89
2023-02-11T22:23:48.009Z,83.51
2023-02-11T22:26:21.868Z,84.04
2023-02-11T22:28:50.672Z,84.15
2023-02-11T22:31:21.616Z,84.29
2023-02-11T22:33:49.454Z,83.95
2023-02-11T22:36:25.517Z,84.84
2023-02-11T22:38:53.684Z,83.82
2023-02-11T22:41:22.576Z,84.18
2023-02-11T22:43:50.526Z,84.00
2023-02-11T22:46:19.410Z,83.00
2023-02-11T22:48:47.433Z,83.10
2023-02-11T22:51:23.200Z,82.92
2023-02-11T22:53:55.364Z,83.71
2023-02-11T22:56:23.509Z,84.09
2023-02-11T22:58:51.662Z,84.76
2023-02-11T23:01:19.651Z,84.45
2023-02-11T23:03:47.087Z,84.28
2023-02-11T23:06:14.517Z,84.40
2023-02-11T23:08:43.320Z,84.63
2023-02-11T23:11:19.318Z,84.22
2023-02-11T23:13:48.652Z,83.90
2023-02-11T23:16:19.444Z,83.42
2023-02-11T23:18:48.018Z,84.18
2023-02-11T23:21:24.420Z,83.58
2023-02-11T23:23:57.116Z,83.35
2023-02-11T23:26:24.941Z,84.18
2023-02-11T23:28:52.237Z,84.30
2023-02-11T23:31:31.472Z,84.64
2023-02-11T23:33:58.914Z,84.51
2023-02-11T23:36:26.488Z,84.21
2023-02-11T23:38:53.746Z,83.57
2023-02-11T23:41:21.767Z,83.79
2023-02-11T23:43:51.072Z,83.37
2023-02-11T23:46:19.334Z,83.31
2023-02-11T23:48:46.651Z,82.90
2023-02-11T23:51:14.037Z,83.98
2023-02-11T23:53:41.621Z,84.03
2023-02-11T23:56:10.749Z,84.81
2023-02-11T23:58:37.990Z,85.07
